Map

Track Data

SID SEASON NUMBER BASIN SUBBASIN NAME ISO_TIME NATURE LAT LON WMO_WIND WMO_PRES WMO_AGENCY TRACK_TYPE DIST2LAND LANDFALL IFLAG USA_AGENCY USA_ATCF_ID USA_LAT USA_LON USA_RECORD USA_STATUS USA_WIND USA_PRES USA_SSHS USA_R34_NE USA_R34_SE USA_R34_SW USA_R34_NW USA_R50_NE USA_R50_SE USA_R50_SW USA_R50_NW USA_R64_NE USA_R64_SE USA_R64_SW USA_R64_NW USA_POCI USA_ROCI USA_RMW USA_EYE TOKYO_LAT TOKYO_LON TOKYO_GRADE TOKYO_WIND TOKYO_PRES TOKYO_R50_DIR TOKYO_R50_LONG TOKYO_R50_SHORT TOKYO_R30_DIR TOKYO_R30_LONG TOKYO_R30_SHORT TOKYO_LAND CMA_LAT CMA_LON CMA_CAT CMA_WIND CMA_PRES HKO_LAT HKO_LON HKO_CAT HKO_WIND HKO_PRES NEWDELHI_LAT NEWDELHI_LON NEWDELHI_GRADE NEWDELHI_WIND NEWDELHI_PRES NEWDELHI_CI NEWDELHI_DP NEWDELHI_POCI REUNION_LAT REUNION_LON REUNION_TYPE REUNION_WIND REUNION_PRES REUNION_TNUM REUNION_CI REUNION_RMW REUNION_R34_NE REUNION_R34_SE REUNION_R34_SW REUNION_R34_NW REUNION_R50_NE REUNION_R50_SE REUNION_R50_SW REUNION_R50_NW REUNION_R64_NE REUNION_R64_SE REUNION_R64_SW REUNION_R64_NW BOM_LAT BOM_LON BOM_TYPE BOM_WIND BOM_PRES BOM_TNUM BOM_CI BOM_RMW BOM_R34_NE BOM_R34_SE BOM_R34_SW BOM_R34_NW BOM_R50_NE BOM_R50_SE BOM_R50_SW BOM_R50_NW BOM_R64_NE BOM_R64_SE BOM_R64_SW BOM_R64_NW BOM_ROCI BOM_POCI BOM_EYE BOM_POS_METHOD BOM_PRES_METHOD NADI_LAT NADI_LON NADI_CAT NADI_WIND NADI_PRES WELLINGTON_LAT WELLINGTON_LON WELLINGTON_WIND WELLINGTON_PRES DS824_LAT DS824_LON DS824_STAGE DS824_WIND DS824_PRES TD9636_LAT TD9636_LON TD9636_STAGE TD9636_WIND TD9636_PRES TD9635_LAT TD9635_LON TD9635_WIND TD9635_PRES TD9635_ROCI NEUMANN_LAT NEUMANN_LON NEUMANN_CLASS NEUMANN_WIND NEUMANN_PRES MLC_LAT MLC_LON MLC_CLASS MLC_WIND MLC_PRES USA_GUST BOM_GUST BOM_GUST_PER REUNION_GUST REUNION_GUST_PER USA_SEAHGT USA_SEARAD_NE USA_SEARAD_SE USA_SEARAD_SW USA_SEARAD_NW STORM_SPEED STORM_DIR
1863111S13081 1863 9 SI MM NOT_NAMED 1863-04-21 06:00:00 NR -12.9000 80.6000 spur-split 2106 2106 _____O________ -1 -12.9000 80.6000 99 9.90000 4 249
1863111S13081 1863 9 SI MM NOT_NAMED 1863-04-21 09:00:00 NR -12.9736 80.3984 spur-split 2117 2117 _____P________ -1 -12.9736 80.3984 99 4 250
1863111S13081 1863 9 SI MM NOT_NAMED 1863-04-21 12:00:00 NR -13.0473 80.1957 spur-split 2118 2118 _____P________ -1 -13.0473 80.1957 99 4 250
1863111S13081 1863 9 SI MM NOT_NAMED 1863-04-21 15:00:00 NR -13.1212 79.9909 spur-split 2129 2129 _____P________ -1 -13.1212 79.9909 99 4 250
1863111S13081 1863 9 SI MM NOT_NAMED 1863-04-21 18:00:00 NR -13.1954 79.7829 spur-split 2141 2141 _____P________ -1 -13.1954 79.7829 99 4 250
1863111S13081 1863 9 SI MM NOT_NAMED 1863-04-21 21:00:00 NR -13.2703 79.5709 spur-split 2153 2153 _____P________ -1 -13.2703 79.5709 99 4 250
1863111S13081 1863 9 SI MM NOT_NAMED 1863-04-22 00:00:00 NR -13.3459 79.3537 spur-split 2155 2155 _____P________ -1 -13.3459 79.3537 99 5 250
1863111S13081 1863 9 SI MM NOT_NAMED 1863-04-22 03:00:00 NR -13.4224 79.1304 spur-split 2168 2168 _____P________ -1 -13.4224 79.1304 99 5 251
1863111S13081 1863 9 SI MM NOT_NAMED 1863-04-22 06:00:00 NR -13.5000 78.9000 reunion spur-split 2181 2181 _____O________ -1 -13.5000 78.9000 99 9.90000 5 251
1863111S13081 1863 9 SI MM NOT_NAMED 1863-04-22 09:00:00 NR -13.5789 78.6617 spur-split 2194 2194 _____P________ -1 -13.5789 78.6617 99 5 251
1863111S13081 1863 9 SI MM NOT_NAMED 1863-04-22 12:00:00 NR -13.6594 78.4156 spur-split 2209 2209 _____P________ -1 -13.6594 78.4156 99 5 251
1863111S13081 1863 9 SI MM NOT_NAMED 1863-04-22 15:00:00 NR -13.7421 78.1622 spur-split 2211 2211 _____P________ -1 -13.7421 78.1622 99 5 251
1863111S13081 1863 9 SI MM NOT_NAMED 1863-04-22 18:00:00 NR -13.8271 77.9020 spur-split 2227 2227 _____P________ -1 -13.8271 77.9020 99 5 251
1863111S13081 1863 9 SI MM NOT_NAMED 1863-04-22 21:00:00 NR -13.9150 77.6352 spur-split 2221 2196 _____P________ -1 -13.9150 77.6352 99 6 251
1863111S13081 1863 9 SI MM NOT_NAMED 1863-04-23 00:00:00 NR -14.0062 77.3624 spur-split 2196 2162 _____P________ -1 -14.0062 77.3624 99 6 251
1863111S13081 1863 9 SI MM NOT_NAMED 1863-04-23 03:00:00 NR -14.1011 77.0838 spur-split 2162 2128 _____P________ -1 -14.1011 77.0838 99 6 250
1863111S13081 1863 9 SI MM NOT_NAMED 1863-04-23 06:00:00 NR -14.2000 76.8000 reunion spur-split 2128 2094 _____O________ -1 -14.2000 76.8000 99 9.90000 6 250
1863111S13081 1863 9 SI MM NOT_NAMED 1863-04-23 09:00:00 NR -14.3052 76.5007 spur-split 2094 2060 _____P________ -1 -14.3052 76.5007 99 6 250
1863111S13081 1863 9 SI MM NOT_NAMED 1863-04-23 12:00:00 NR -14.4150 76.1934 spur-split 2060 2025 _____P________ -1 -14.4150 76.1934 99 6 250
1863111S13081 1863 9 SI MM NOT_NAMED 1863-04-23 15:00:00 NR -14.5279 75.8820 spur-split 2025 1991 _____P________ -1 -14.5279 75.8820 99 6 249
1863111S13081 1863 9 SI MM NOT_NAMED 1863-04-23 18:00:00 NR -14.6429 75.5703 spur-split 1991 1953 _____P________ -1 -14.6429 75.5703 99 6 249
1863111S13081 1863 9 SI MM NOT_NAMED 1863-04-23 21:00:00 NR -14.7588 75.2624 spur-split 1953 1919 _____P________ -1 -14.7588 75.2624 99 6 249
1863111S13081 1863 9 SI MM NOT_NAMED 1863-04-24 00:00:00 NR -14.8744 74.9621 spur-split 1919 1885 _____P________ -1 -14.8744 74.9621 99 6 248
1863111S13081 1863 9 SI MM NOT_NAMED 1863-04-24 03:00:00 NR -14.9885 74.6733 spur-split 1885 1851 _____P________ -1 -14.9885 74.6733 99 6 247
1863111S13081 1863 9 SI MM NOT_NAMED 1863-04-24 06:00:00 NR -15.1000 74.4000 reunion spur-split 1851 1827 _____O________ -1 -15.1000 74.4000 99 9.90000 5 247
1863111S13081 1863 9 SI MM NOT_NAMED 1863-04-24 09:00:00 NR -15.1983 74.1640 spur-split 1827 1803 _____P________ -1 -15.1983 74.1640 99 5 246
1863111S13081 1863 9 SI MM NOT_NAMED 1863-04-24 12:00:00 NR -15.2939 73.9441 spur-split 1793 1769 _____P________ -1 -15.2939 73.9441 99 5 245
1863111S13081 1863 9 SI MM NOT_NAMED 1863-04-24 15:00:00 NR -15.3885 73.7355 spur-split 1769 1745 _____P________ -1 -15.3885 73.7355 99 4 244
1863111S13081 1863 9 SI MM NOT_NAMED 1863-04-24 18:00:00 NR -15.4835 73.5337 spur-split 1745 1721 _____P________ -1 -15.4835 73.5337 99 4 244
1863111S13081 1863 9 SI MM NOT_NAMED 1863-04-24 21:00:00 NR -15.5807 73.3339 spur-split 1721 1697 _____P________ -1 -15.5807 73.3339 99 4 243
1863111S13081 1863 9 SI MM NOT_NAMED 1863-04-25 00:00:00 NR -15.6814 73.1315 spur-split 1697 1673 _____P________ -1 -15.6814 73.1315 99 4 242
1863111S13081 1863 9 SI MM NOT_NAMED 1863-04-25 03:00:00 NR -15.7874 72.9218 spur-split 1673 1649 _____P________ -1 -15.7874 72.9218 99 5 242
1863111S13081 1863 9 SI MM NOT_NAMED 1863-04-25 06:00:00 NR -15.9000 72.7000 reunion spur-split 1649 1625 _____O________ -1 -15.9000 72.7000 99 9.90000 5 243
1863111S13081 1863 9 SI MM NOT_NAMED 1863-04-25 09:00:00 NR -16.0199 72.4406 spur-split 1615 1591 _____P________ -1 -16.0199 72.4406 99 6 244
1863111S13081 1863 9 SI MM NOT_NAMED 1863-04-25 12:00:00 NR -16.1456 72.1697 spur-split 1591 1553 _____P________ -1 -16.1456 72.1697 99 6 244
1863111S13081 1863 9 SI MM NOT_NAMED 1863-04-25 15:00:00 NR -16.2768 71.8908 spur-split 1553 1519 _____P________ -1 -16.2768 71.8908 99 6 244
1863111S13081 1863 9 SI MM NOT_NAMED 1863-04-25 18:00:00 NR -16.4129 71.6075 spur-split 1519 1485 _____P________ -1 -16.4129 71.6075 99 6 243
1863111S13081 1863 9 SI MM NOT_NAMED 1863-04-25 21:00:00 NR -16.5537 71.3232 spur-split 1482 1458 _____P________ -1 -16.5537 71.3232 99 6 242
1863111S13081 1863 9 SI MM NOT_NAMED 1863-04-26 00:00:00 NR -16.6987 71.0415 spur-split 1448 1424 _____P________ -1 -16.6987 71.0415 99 6 241
1863111S13081 1863 9 SI MM NOT_NAMED 1863-04-26 03:00:00 NR -16.8476 70.7659 spur-split 1424 1387 _____P________ -1 -16.8476 70.7659 99 6 240
1863111S13081 1863 9 SI MM NOT_NAMED 1863-04-26 06:00:00 NR -17.0000 70.5000 reunion spur-split 1387 1363 _____O________ -1 -17.0000 70.5000 99 9.90000 6 238
1863111S13081 1863 9 SI MM NOT_NAMED 1863-04-26 09:00:00 NR -17.1556 70.2465 spur-split 1350 1326 _____P________ -1 -17.1556 70.2465 99 6 236
1863111S13081 1863 9 SI MM NOT_NAMED 1863-04-26 12:00:00 NR -17.3140 70.0045 spur-split 1326 1300 _____P________ -1 -17.3140 70.0045 99 6 235
1863111S13081 1863 9 SI MM NOT_NAMED 1863-04-26 15:00:00 NR -17.4748 69.7724 spur-split 1300 1276 _____P________ -1 -17.4748 69.7724 99 5 233
1863111S13081 1863 9 SI MM NOT_NAMED 1863-04-26 18:00:00 NR -17.6376 69.5485 spur-split 1266 1240 _____P________ -1 -17.6376 69.5485 99 5 232
1863111S13081 1863 9 SI MM NOT_NAMED 1863-04-26 21:00:00 NR -17.8019 69.3310 spur-split 1240 1214 _____P________ -1 -17.8019 69.3310 99 5 231
1863111S13081 1863 9 SI MM NOT_NAMED 1863-04-27 00:00:00 NR -17.9674 69.1182 spur-split 1214 1191 _____P________ -1 -17.9674 69.1182 99 5 230
1863111S13081 1863 9 SI MM NOT_NAMED 1863-04-27 03:00:00 NR -18.1336 68.9084 spur-split 1191 1165 _____P________ -1 -18.1336 68.9084 99 5 230
1863111S13081 1863 9 SI MM NOT_NAMED 1863-04-27 06:00:00 NR -18.3000 68.7000 reunion spur-split 1165 _____O________ -1 -18.3000 68.7000 99 9.90000 5 230

About IBTrACS Database

This database is a web-friendly format of International Best Track Archive for Climate Stewardship (IBTrACS), a global best track data archive curated by NOAA dating back to 1842.

Updated: 2021-10-25